Time;durP1;ratioP1;P1;durP2;ratioP2;P2;SDS_P1;SDS_P2;PMS_P1;PMS_P2;Temp;Humidity;BMP_temperature;BMP_pressure;BME280_temperature;BME280_humidity;BME280_pressure;Samples;Min_cycle;Max_cycle;Signal;HPM_P1;HPM_P2
2022/05/12 00:01:03;;;;;;;8.82;2.50;;;;;;;13.02;75.47;101310.06;5014428;28;20056;-80
2022/05/12 00:03:29;;;;;;;9.18;2.60;;;;;;;13.01;74.81;101313.63;5041470;28;20369;-79
2022/05/12 00:05:54;;;;;;;8.75;2.58;;;;;;;12.95;75.25;101305.78;5035194;28;20116;-79
2022/05/12 00:08:19;;;;;;;12.63;2.90;;;;;;;12.93;75.20;101325.34;5041566;28;20508;-79
2022/05/12 00:10:45;;;;;;;9.35;2.65;;;;;;;12.89;74.61;101322.78;5015263;28;20182;-79
2022/05/12 00:13:11;;;;;;;11.88;2.42;;;;;;;12.87;74.77;101327.25;5015126;28;20087;-79
2022/05/12 00:15:37;;;;;;;7.47;2.33;;;;;;;12.84;74.89;101334.44;5015093;28;20029;-80
2022/05/12 00:18:06;;;;;;;9.20;2.53;;;;;;;12.80;74.41;101322.09;5032717;28;20061;-79
2022/05/12 00:20:36;;;;;;;14.07;2.90;;;;;;;12.75;74.68;101334.63;5009842;28;20492;-80
2022/05/12 00:23:08;;;;;;;10.35;2.85;;;;;;;12.69;74.59;101339.19;5039498;28;20080;-79
2022/05/12 00:25:34;;;;;;;12.88;2.90;;;;;;;12.66;74.19;101333.03;5031403;28;20056;-79
2022/05/12 00:27:59;;;;;;;10.15;2.53;;;;;;;12.61;74.58;101335.84;4999543;28;20394;-80
2022/05/12 00:30:25;;;;;;;10.80;2.70;;;;;;;12.60;74.36;101342.03;4997832;28;20033;-79
2022/05/12 00:32:50;;;;;;;7.22;2.17;;;;;;;12.54;74.53;101346.63;5014528;28;20040;-79
2022/05/12 00:35:17;;;;;;;11.20;2.67;;;;;;;12.47;74.86;101348.53;4998308;28;20038;-79
2022/05/12 00:37:44;;;;;;;9.60;2.10;;;;;;;12.42;74.57;101355.72;5032528;28;20108;-79
2022/05/12 00:40:11;;;;;;;8.75;2.35;;;;;;;12.42;74.02;101361.03;5032227;28;20500;-79
2022/05/12 00:42:36;;;;;;;5.72;1.90;;;;;;;12.39;74.60;101361.13;5032387;28;20041;-79
2022/05/12 00:45:03;;;;;;;7.60;2.15;;;;;;;12.33;74.87;101363.88;5031100;28;20430;-79
2022/05/12 00:47:29;;;;;;;9.68;2.63;;;;;;;12.25;74.88;101361.38;5036453;28;20049;-79
2022/05/12 00:49:55;;;;;;;7.30;2.05;;;;;;;12.23;74.63;101372.03;5016398;28;20507;-79
2022/05/12 00:52:27;;;;;;;10.30;2.10;;;;;;;12.22;74.88;101369.44;5051333;28;20424;-79
2022/05/12 00:55:05;;;;;;;8.32;2.55;;;;;;;12.18;74.81;101362.41;5051236;28;20033;-79
2022/05/12 00:57:47;;;;;;;7.55;2.42;;;;;;;12.14;74.72;101366.03;5033390;28;20044;-79
2022/05/12 01:00:14;;;;;;;10.15;2.33;;;;;;;12.04;74.90;101374.19;5051308;28;20111;-79
2022/05/12 01:02:42;;;;;;;7.38;2.25;;;;;;;11.98;75.06;101374.31;5036073;28;20095;-79
2022/05/12 01:05:09;;;;;;;4.75;1.92;;;;;;;11.93;75.33;101375.31;5016870;28;20044;-79
2022/05/12 01:07:36;;;;;;;7.40;2.00;;;;;;;11.91;74.97;101387.72;5033725;28;20029;-79
2022/05/12 01:10:04;;;;;;;8.43;2.17;;;;;;;11.83;75.58;101380.75;5050926;28;20060;-79
2022/05/12 01:12:31;;;;;;;10.20;2.10;;;;;;;11.79;75.27;101383.47;5050950;28;20429;-79
2022/05/12 01:14:56;;;;;;;6.43;2.00;;;;;;;11.75;75.79;101387.09;5033352;28;20021;-79
2022/05/12 01:17:24;;;;;;;4.93;2.28;;;;;;;11.72;75.46;101396.00;5033075;28;20116;-79
2022/05/12 01:19:51;;;;;;;5.80;1.48;;;;;;;11.71;75.32;101390.69;5056739;28;20131;-79
2022/05/12 01:22:51;;;;;;;4.60;1.50;;;;;;;11.69;75.05;101396.03;5042000;28;20033;-79
2022/05/12 01:25:20;;;;;;;8.70;1.80;;;;;;;11.63;75.59;101399.66;5050871;28;20163;-79
2022/05/12 01:27:46;;;;;;;7.32;1.80;;;;;;;11.60;75.43;101409.47;5033042;28;20271;-79
2022/05/12 01:30:15;;;;;;;5.20;1.73;;;;;;;11.52;76.11;101416.66;5016231;28;20503;-79
2022/05/12 01:32:43;;;;;;;7.70;1.80;;;;;;;11.45;76.31;101413.25;5035056;28;20460;-79
2022/05/12 01:35:10;;;;;;;7.55;2.58;;;;;;;11.41;75.51;101409.75;5049128;28;20036;-79
2022/05/12 01:37:41;;;;;;;4.25;1.73;;;;;;;11.40;75.61;101415.97;5050925;28;20041;-79
2022/05/12 01:40:08;;;;;;;4.32;1.55;;;;;;;11.37;76.30;101423.09;5050910;28;20040;-79
2022/05/12 01:42:33;;;;;;;4.25;1.67;;;;;;;11.34;76.29;101421.34;5049135;28;20372;-79
2022/05/12 01:44:58;;;;;;;8.52;1.67;;;;;;;11.32;76.24;101428.47;5053360;28;20029;-79
2022/05/12 01:47:24;;;;;;;7.03;1.58;;;;;;;11.30;75.66;101424.09;5032272;28;20538;-79
2022/05/12 01:49:50;;;;;;;3.90;1.73;;;;;;;11.31;75.59;101431.16;5015997;28;20029;-80
2022/05/12 01:52:15;;;;;;;5.80;1.70;;;;;;;11.28;75.80;101433.88;5050157;28;20056;-79
2022/05/12 01:54:41;;;;;;;7.28;1.77;;;;;;;11.27;75.53;101430.31;5032174;28;20079;-79
2022/05/12 01:57:07;;;;;;;6.00;1.98;;;;;;;11.25;76.02;101436.53;5050548;28;20021;-79
2022/05/12 01:59:32;;;;;;;8.88;1.83;;;;;;;11.23;75.39;101428.63;5050049;28;20029;-79
2022/05/12 02:01:58;;;;;;;6.47;1.88;;;;;;;11.17;75.09;101428.69;5032740;28;20064;-79
2022/05/12 02:04:23;;;;;;;4.82;1.70;;;;;;;11.17;74.59;101434.88;5033094;28;20523;-79
2022/05/12 02:06:49;;;;;;;8.90;1.98;;;;;;;11.12;75.21;101442.00;5015944;28;20048;-79
2022/05/12 02:09:16;;;;;;;4.85;1.73;;;;;;;11.10;75.80;101453.53;5032880;28;20480;-79
2022/05/12 02:11:42;;;;;;;7.70;2.28;;;;;;;11.07;76.47;101451.81;5032586;28;20123;-79
2022/05/12 02:14:09;;;;;;;4.85;1.90;;;;;;;11.02;76.17;101451.00;5050103;28;20124;-79
2022/05/12 02:16:35;;;;;;;8.63;2.00;;;;;;;11.00;77.25;101460.75;5050203;28;20044;-79
2022/05/12 02:19:04;;;;;;;7.32;1.98;;;;;;;10.93;76.56;101459.97;5032240;28;20059;-79
2022/05/12 02:21:30;;;;;;;7.07;2.03;;;;;;;10.90;77.39;101459.97;5032311;28;20033;-79
2022/05/12 02:23:55;;;;;;;8.23;2.35;;;;;;;10.84;76.75;101460.09;5041134;28;20044;-79
2022/05/12 02:26:21;;;;;;;7.03;2.00;;;;;;;10.81;76.69;101465.44;5069889;28;20024;-79
2022/05/12 02:28:47;;;;;;;6.60;1.98;;;;;;;10.77;77.33;101464.56;5034833;28;20139;-79
2022/05/12 02:31:12;;;;;;;9.95;2.97;;;;;;;10.74;76.86;101466.41;5037632;28;20048;-79
2022/05/12 02:33:38;;;;;;;6.13;2.00;;;;;;;10.72;77.58;101470.84;5049672;28;20478;-79
2022/05/12 02:36:04;;;;;;;9.45;2.33;;;;;;;10.69;78.19;101477.03;5032127;28;20158;-78
2022/05/12 02:38:30;;;;;;;8.85;2.42;;;;;;;10.72;77.96;101481.44;5015739;28;20120;-79
2022/05/12 02:40:55;;;;;;;8.90;2.20;;;;;;;10.69;78.12;101482.34;5032096;28;20587;-79
2022/05/12 02:43:24;;;;;;;9.20;2.35;;;;;;;10.68;78.94;101491.19;5032059;28;20199;-79
2022/05/12 02:45:55;;;;;;;12.43;2.72;;;;;;;10.64;79.46;101494.78;5032657;28;20203;-78
2022/05/12 02:48:22;;;;;;;;;;;;;;;10.74;76.52;101495.53;5037236;28;20046;-79
2022/05/12 02:50:48;;;;;;;10.10;3.03;;;;;;;10.67;78.24;101491.22;5029895;28;20368;-79
2022/05/12 02:53:14;;;;;;;9.45;2.65;;;;;;;10.65;79.38;101503.59;5012322;28;20120;-78
2022/05/12 02:55:40;;;;;;;6.45;2.28;;;;;;;10.62;78.54;101498.34;4995806;28;20128;-79
2022/05/12 02:58:05;;;;;;;10.50;3.05;;;;;;;10.61;79.18;101500.09;5012230;28;20033;-79
2022/05/12 03:00:31;;;;;;;8.82;2.55;;;;;;;10.60;79.31;101500.97;5012058;28;20071;-79
2022/05/12 03:02:57;;;;;;;11.80;2.85;;;;;;;10.57;79.54;101497.50;5017632;28;20044;-79
2022/05/12 03:05:23;;;;;;;10.98;2.92;;;;;;;10.54;79.66;101496.66;4996431;28;20025;-78
2022/05/12 03:07:49;;;;;;;13.18;3.10;;;;;;;10.54;80.20;101501.94;5013050;28;20029;-78
2022/05/12 03:10:14;;;;;;;11.45;2.95;;;;;;;10.55;79.99;101505.47;4996586;28;20064;-79
2022/05/12 03:12:40;;;;;;;12.80;3.00;;;;;;;10.55;80.07;101505.47;4999612;28;20495;-78
2022/05/12 03:15:07;;;;;;;11.45;3.10;;;;;;;10.51;80.58;101511.72;5015342;28;20029;-78
2022/05/12 03:17:34;;;;;;;8.73;3.17;;;;;;;10.48;80.77;101506.41;4999152;28;20033;-78
2022/05/12 03:20:00;;;;;;;9.73;3.15;;;;;;;10.48;80.09;101507.31;5033276;28;20020;-78
2022/05/12 03:22:25;;;;;;;12.55;4.13;;;;;;;10.48;80.59;101517.91;5001411;28;20033;-78
2022/05/12 03:24:51;;;;;;;15.00;3.33;;;;;;;10.48;80.57;101509.06;5015535;28;20095;-78
2022/05/12 03:27:16;;;;;;;10.65;3.40;;;;;;;10.47;80.40;101509.97;5015618;28;20021;-78
2022/05/12 03:29:42;;;;;;;13.25;3.50;;;;;;;10.46;80.98;101513.50;5015540;28;20037;-78
2022/05/12 03:32:10;;;;;;;12.68;4.25;;;;;;;10.43;81.61;101514.41;5033451;28;20436;-78
2022/05/12 03:34:38;;;;;;;14.77;4.10;;;;;;;10.43;81.39;101522.34;4999417;28;20040;-78
2022/05/12 03:37:08;;;;;;;18.40;4.30;;;;;;;10.41;81.39;101525.91;5034073;28;20063;-78
2022/05/12 03:39:35;;;;;;;18.67;5.15;;;;;;;10.40;81.76;101524.16;5016142;28;20064;-78
2022/05/12 03:42:02;;;;;;;12.57;4.53;;;;;;;10.42;81.59;101538.28;5052534;28;20044;-78
2022/05/12 03:47:13;;;;;;;18.25;5.88;;;;;;;10.40;82.64;101543.56;5038386;28;20052;-78
2022/05/12 03:49:39;;;;;;;19.65;6.15;;;;;;;10.40;83.01;101540.91;5053500;28;20049;-78
2022/05/12 03:52:05;;;;;;;20.58;5.63;;;;;;;10.42;83.37;101546.22;5035499;28;20064;-78
2022/05/12 03:54:30;;;;;;;17.95;5.72;;;;;;;10.39;82.70;101552.41;5051916;28;20562;-77
2022/05/12 03:56:56;;;;;;;21.95;5.25;;;;;;;10.35;83.55;101555.97;5035272;28;20313;-78
2022/05/12 03:59:21;;;;;;;15.40;6.35;;;;;;;10.37;83.67;101553.34;5018652;28;20025;-77
2022/05/12 04:01:47;;;;;;;22.58;6.93;;;;;;;10.36;83.37;101554.19;5046687;28;20336;-77
2022/05/12 04:04:13;;;;;;;23.98;7.63;;;;;;;10.37;84.39;101561.28;5023627;28;20106;-76
2022/05/12 04:06:38;;;;;;;21.20;6.97;;;;;;;10.37;84.62;101567.44;5015490;28;20454;-77
2022/05/12 04:09:04;;;;;;;19.08;6.80;;;;;;;10.38;84.09;101563.88;5033181;28;20033;-77
2022/05/12 04:11:30;;;;;;;17.80;6.57;;;;;;;10.39;83.95;101575.38;5030476;28;20140;-77
2022/05/12 04:13:56;;;;;;;28.52;8.20;;;;;;;10.38;84.36;101573.59;4999146;28;20401;-77
2022/05/12 04:16:22;;;;;;;23.67;8.10;;;;;;;10.36;84.44;101584.22;5015190;28;20025;-76
2022/05/12 04:18:48;;;;;;;23.42;8.15;;;;;;;10.31;85.01;101581.63;5015278;28;20116;-76
2022/05/12 04:21:16;;;;;;;23.70;7.95;;;;;;;10.28;84.41;101581.63;4998518;28;20449;-76
2022/05/12 04:23:42;;;;;;;22.80;8.32;;;;;;;10.23;85.80;101586.03;4999467;28;20025;-77
2022/05/12 04:26:08;;;;;;;25.58;9.35;;;;;;;10.25;85.38;101589.56;5031779;28;20033;-76
2022/05/12 04:28:34;;;;;;;27.38;8.65;;;;;;;10.27;85.36;101587.78;5015058;28;20087;-76
2022/05/12 04:31:00;;;;;;;23.20;8.80;;;;;;;10.27;84.97;101581.63;5015286;28;20397;-76
2022/05/12 04:36:09;;;;;;;23.77;8.45;;;;;;;10.32;85.77;101599.25;5017756;28;20038;-76
2022/05/12 04:38:35;;;;;;;22.98;9.07;;;;;;;10.33;86.07;101605.41;5014688;28;20120;-77
2022/05/12 04:41:00;;;;;;;26.02;9.52;;;;;;;10.30;85.57;101608.97;4998471;28;20038;-76
2022/05/12 04:43:27;;;;;;;25.20;10.07;;;;;;;10.34;85.96;101615.13;5032649;28;20042;-76
2022/05/12 04:45:53;;;;;;;22.25;9.32;;;;;;;10.36;85.75;101618.66;5032320;28;20046;-76
2022/05/12 04:48:18;;;;;;;30.77;11.30;;;;;;;10.39;87.45;101609.81;5032313;28;20121;-76
2022/05/12 04:50:44;;;;;;;27.00;10.65;;;;;;;10.38;87.18;101608.91;5014224;28;20037;-77
2022/05/12 04:53:10;;;;;;;28.08;11.40;;;;;;;10.40;87.24;101607.13;5014601;28;20040;-76
2022/05/12 04:55:38;;;;;;;24.67;10.40;;;;;;;10.44;87.09;101618.56;5031671;28;20460;-77
2022/05/12 04:58:03;;;;;;;29.58;12.48;;;;;;;10.45;88.18;101625.63;5028755;28;20088;-77
2022/05/12 05:00:34;;;;;;;26.48;10.95;;;;;;;10.50;87.56;101623.81;5017309;28;20107;-77
2022/05/12 05:03:00;;;;;;;32.40;13.27;;;;;;;10.56;88.15;101623.75;5016739;28;20030;-77
2022/05/12 05:05:26;;;;;;;27.30;12.30;;;;;;;10.60;87.92;101628.13;5013812;28;20044;-77
2022/05/12 05:07:52;;;;;;;36.20;12.40;;;;;;;10.65;88.97;101633.38;5031421;28;20060;-77
2022/05/12 05:10:18;;;;;;;38.05;12.95;;;;;;;10.68;87.99;101626.28;5031910;28;20509;-77
2022/05/12 05:12:44;;;;;;;34.97;12.85;;;;;;;10.74;87.95;101641.25;4997893;28;20081;-77
2022/05/12 05:15:12;;;;;;;32.92;12.95;;;;;;;10.76;88.90;101647.41;5014328;28;20064;-77
2022/05/12 05:17:38;;;;;;;28.65;12.23;;;;;;;10.82;88.05;101649.13;5014682;28;20038;-77
2022/05/12 05:20:07;;;;;;;31.13;14.93;;;;;;;10.86;88.61;101649.06;5013957;28;20117;-77
2022/05/12 05:22:35;;;;;;;31.77;15.15;;;;;;;10.93;88.01;101652.56;5032062;28;20048;-77
2022/05/12 05:25:01;;;;;;;29.67;12.88;;;;;;;10.95;88.21;101662.25;5031645;28;20021;-77
2022/05/12 05:27:26;;;;;;;29.88;13.75;;;;;;;10.98;88.88;101656.03;5030561;28;20429;-78
2022/05/12 05:29:52;;;;;;;38.92;15.88;;;;;;;11.06;88.98;101662.13;5030469;28;20048;-77
2022/05/12 05:32:18;;;;;;;30.85;15.48;;;;;;;11.13;88.60;101670.88;5031608;28;20056;-77
2022/05/12 05:34:43;;;;;;;35.75;14.52;;;;;;;11.21;87.99;101668.16;5029748;28;20143;-78
2022/05/12 05:37:09;;;;;;;39.05;16.17;;;;;;;11.25;88.33;101675.16;5031712;28;20083;-77
2022/05/12 05:39:35;;;;;;;32.63;16.02;;;;;;;11.29;89.23;101684.84;5032930;28;20033;-81
2022/05/12 05:42:05;;;;;;;31.88;16.15;;;;;;;11.35;89.00;101687.41;5051350;28;20117;-81
2022/05/12 05:44:32;;;;;;;37.88;16.02;;;;;;;11.41;88.14;101688.22;5047666;28;20187;-80
2022/05/12 05:47:00;;;;;;;35.28;16.48;;;;;;;11.51;88.33;101696.06;5013758;28;20457;-80
2022/05/12 05:49:27;;;;;;;32.20;16.75;;;;;;;11.55;88.35;101697.81;5031090;28;20029;-81
2022/05/12 05:54:37;;;;;;;38.08;16.75;;;;;;;11.71;88.66;101709.97;5016107;28;20116;-81
2022/05/12 05:57:03;;;;;;;30.95;17.20;;;;;;;11.77;88.56;101714.31;5013372;28;20374;-80
2022/05/12 05:59:28;;;;;;;39.20;18.33;;;;;;;11.83;87.39;101716.91;4996805;28;20044;-81
2022/05/12 06:01:54;;;;;;;36.67;17.33;;;;;;;11.90;87.76;101715.97;5033204;28;20041;-81
2022/05/12 06:04:20;;;;;;;30.40;16.80;;;;;;;11.97;88.48;101730.03;5043195;28;20087;-81
2022/05/12 06:06:45;;;;;;;33.17;17.00;;;;;;;12.05;87.84;101726.34;5032818;28;20526;-81
2022/05/12 06:09:12;;;;;;;41.67;18.20;;;;;;;12.14;87.17;101729.78;5031849;28;20482;-81
2022/05/12 06:11:41;;;;;;;35.45;16.48;;;;;;;12.21;87.46;101729.66;5030271;28;20096;-81
2022/05/12 06:14:07;;;;;;;39.65;15.93;;;;;;;12.30;86.65;101736.63;4998016;28;20041;-81
2022/05/12 06:16:32;;;;;;;36.75;18.98;;;;;;;12.41;86.24;101733.81;5031332;28;20063;-81
2022/05/12 06:18:58;;;;;;;31.80;16.98;;;;;;;12.51;86.72;101746.03;5030921;28;20093;-81
2022/05/12 06:21:23;;;;;;;37.75;16.90;;;;;;;12.57;86.11;101745.09;5016984;28;20041;-81
2022/05/12 06:23:49;;;;;;;33.65;16.88;;;;;;;12.66;85.48;101743.16;5051638;28;20041;-81
2022/05/12 06:26:15;;;;;;;39.97;15.98;;;;;;;12.74;84.37;101745.69;5019321;28;20392;-81
2022/05/12 06:28:45;;;;;;;30.98;16.27;;;;;;;12.84;84.01;101749.97;4997352;28;20041;-82
2022/05/12 06:31:12;;;;;;;31.57;15.00;;;;;;;12.91;83.09;101754.28;5013946;28;20029;-85
2022/05/12 06:33:38;;;;;;;28.17;14.45;;;;;;;12.97;82.53;101752.41;5023690;28;20037;-85
2022/05/12 06:36:05;;;;;;;29.30;14.40;;;;;;;13.04;82.31;101752.28;5051489;28;20027;-85
2022/05/12 06:38:43;;;;;;;30.55;13.98;;;;;;;13.11;81.48;101751.25;5030596;28;20117;-88
2022/05/12 06:41:09;;;;;;;29.98;13.55;;;;;;;13.17;81.25;101752.06;4981976;28;20477;-85
2022/05/12 06:43:36;;;;;;;28.52;13.27;;;;;;;13.24;80.89;101759.03;5013445;28;20056;-86
2022/05/12 06:46:02;;;;;;;24.60;14.27;;;;;;;13.33;80.31;101758.88;5000876;28;20099;-86
2022/05/12 06:48:28;;;;;;;26.75;13.95;;;;;;;13.39;78.81;101774.72;5014443;28;20073;-86
2022/05/12 06:50:54;;;;;;;27.23;13.13;;;;;;;13.41;78.20;101770.25;5020490;28;20426;-86
2022/05/12 06:53:21;;;;;;;24.98;12.18;;;;;;;13.46;78.48;101772.84;5019780;28;20052;-86
2022/05/12 06:55:46;;;;;;;21.02;11.27;;;;;;;13.48;78.79;101763.91;5036778;28;20510;-86
2022/05/12 06:58:17;;;;;;;27.45;12.65;;;;;;;13.57;78.10;101769.97;5036519;28;20033;-86
2022/05/12 07:00:42;;;;;;;25.05;12.27;;;;;;;13.64;76.30;101771.59;5044929;28;20029;-86
2022/05/12 07:03:11;;;;;;;26.63;12.07;;;;;;;13.68;76.14;101778.63;5036120;28;20032;-86
2022/05/12 07:05:38;;;;;;;24.50;12.13;;;;;;;13.72;76.26;101767.88;5038535;28;20132;-86
2022/05/12 07:08:06;;;;;;;24.25;10.90;;;;;;;13.80;75.66;101777.47;5020148;28;20064;-85
2022/05/12 07:10:31;;;;;;;22.92;11.48;;;;;;;13.88;74.30;101781.75;5036555;28;20029;-85
2022/05/12 07:12:57;;;;;;;21.90;10.23;;;;;;;13.95;73.53;101788.72;5036643;28;20040;-86
2022/05/12 07:15:25;;;;;;;22.33;11.88;;;;;;;13.95;74.14;101783.38;5036526;28;20029;-87
2022/05/12 07:17:53;;;;;;;19.70;10.23;;;;;;;14.11;73.11;101789.25;5036541;28;20029;-87
2022/05/12 07:28:33;;;;;;;23.83;7.95;;;;;;;14.22;69.83;101801.44;5036099;28;20411;-86
2022/05/12 07:31:09;;;;;;;20.77;8.13;;;;;;;14.37;69.35;101804.69;5050600;28;20032;-86
2022/05/12 07:33:43;;;;;;;15.68;7.30;;;;;;;14.55;69.53;101803.41;5035917;28;20049;-86
2022/05/12 07:36:18;;;;;;;15.85;7.72;;;;;;;14.59;67.16;101804.22;5035695;28;20485;-85
2022/05/12 07:38:45;;;;;;;15.27;7.32;;;;;;;14.72;67.13;101799.47;5052220;28;20123;-85
2022/05/12 07:41:12;;;;;;;19.30;6.82;;;;;;;14.92;67.21;101804.34;5051877;28;20021;-85
2022/05/12 07:43:42;;;;;;;21.50;7.35;;;;;;;14.94;65.62;101806.03;5035423;28;20063;-85
2022/05/12 07:46:09;;;;;;;19.00;7.73;;;;;;;15.01;66.30;101810.31;5018742;28;20474;-85
2022/05/12 07:48:35;;;;;;;18.15;8.52;;;;;;;15.12;64.89;101812.69;5037721;28;20064;-85
2022/05/12 07:51:02;;;;;;;18.50;7.85;;;;;;;15.04;64.29;101812.03;5003974;28;20026;-85
2022/05/12 07:53:27;;;;;;;14.68;7.30;;;;;;;14.97;64.33;101810.44;4999472;28;20042;-85
2022/05/12 07:55:53;;;;;;;14.75;7.10;;;;;;;14.91;63.67;101816.78;4998303;28;20042;-85
2022/05/12 07:58:19;;;;;;;19.10;6.65;;;;;;;15.02;62.80;101817.38;4982507;28;20055;-85
2022/05/12 08:00:45;;;;;;;14.00;6.03;;;;;;;15.15;62.70;101819.75;5014392;28;20037;-85
2022/05/12 08:03:11;;;;;;;13.27;6.28;;;;;;;15.05;62.25;101829.78;5001696;28;20029;-85
2022/05/12 08:05:36;;;;;;;13.73;5.95;;;;;;;14.93;63.03;101822.06;5034633;28;20036;-85
2022/05/12 08:08:05;;;;;;;15.85;5.55;;;;;;;14.90;60.76;101825.69;5024922;28;20373;-85
2022/05/12 08:10:30;;;;;;;13.07;5.05;;;;;;;15.08;61.03;101816.34;5014903;28;20114;-85
2022/05/12 08:12:56;;;;;;;11.82;4.43;;;;;;;15.40;59.74;101828.00;5014940;28;20469;-85
2022/05/12 08:15:25;;;;;;;13.05;4.22;;;;;;;15.60;57.85;101824.78;5014851;28;20466;-84
2022/05/12 08:17:56;;;;;;;11.95;5.05;;;;;;;15.77;57.84;101825.25;5033098;28;20041;-85
2022/05/12 08:20:23;;;;;;;13.63;4.13;;;;;;;16.02;57.74;101829.88;5026217;28;20043;-85
2022/05/12 08:22:48;;;;;;;9.70;3.95;;;;;;;16.01;55.25;101829.03;5034519;28;20453;-85
2022/05/12 08:25:15;;;;;;;14.55;3.40;;;;;;;15.84;54.21;101834.84;5017933;28;20032;-85
2022/05/12 08:27:40;;;;;;;11.95;3.92;;;;;;;15.54;53.54;101820.50;5017783;28;20045;-85
2022/05/12 08:30:10;;;;;;;12.15;3.90;;;;;;;15.71;54.99;101828.09;5050957;28;20105;-85
2022/05/12 08:32:35;;;;;;;9.18;4.13;;;;;;;15.95;53.92;101834.56;5033840;28;20037;-85
2022/05/12 08:35:02;;;;;;;8.85;3.35;;;;;;;16.03;53.24;101826.31;5007574;28;20087;-85
2022/05/12 08:37:27;;;;;;;12.52;3.70;;;;;;;16.19;52.22;101822.25;5014404;28;20025;-85
2022/05/12 08:39:54;;;;;;;10.85;3.92;;;;;;;16.22;52.38;101824.88;5032514;28;20761;-84
2022/05/12 08:42:23;;;;;;;12.68;3.95;;;;;;;16.48;53.36;101832.06;4998356;28;20044;-84
2022/05/12 08:44:49;;;;;;;7.18;2.90;;;;;;;16.52;49.67;101825.72;5013528;28;20033;-84
2022/05/12 08:47:23;;;;;;;7.15;3.10;;;;;;;16.52;49.84;101823.06;5005422;28;20049;-85
2022/05/12 08:49:51;;;;;;;7.53;3.03;;;;;;;16.63;49.51;101825.38;5053436;28;20036;-85
2022/05/12 08:52:37;;;;;;;10.93;2.90;;;;;;;16.77;49.51;101831.16;5033773;28;20029;-84
2022/05/12 08:55:31;;;;;;;7.85;2.40;;;;;;;16.66;48.76;101835.09;5042941;28;20128;-84
2022/05/12 08:58:04;;;;;;;7.03;2.88;;;;;;;16.61;48.55;101834.38;5033841;28;20037;-84
2022/05/12 09:00:38;;;;;;;4.80;2.17;;;;;;;16.85;49.58;101828.28;5034139;28;20060;-84
2022/05/12 09:03:27;;;;;;;8.75;2.95;;;;;;;16.91;48.48;101833.44;5025010;28;20135;-84
2022/05/12 09:06:02;;;;;;;10.77;2.40;;;;;;;16.98;46.99;101836.78;5053577;28;20036;-83
2022/05/12 09:09:05;;;;;;;6.75;2.40;;;;;;;16.99;47.82;101846.56;5049083;28;20037;-83
2022/05/12 09:11:55;;;;;;;6.25;2.35;;;;;;;17.05;46.35;101841.00;5033746;28;20450;-84
2022/05/12 09:14:32;;;;;;;8.50;2.40;;;;;;;17.14;44.99;101846.06;5033581;28;20088;-84
2022/05/12 09:16:59;;;;;;;7.10;2.60;;;;;;;17.03;46.40;101840.16;5034118;28;20040;-83
2022/05/12 09:19:26;;;;;;;15.93;2.60;;;;;;;17.18;46.82;101828.97;5017516;28;20029;-84
2022/05/12 09:21:52;;;;;;;14.05;2.55;;;;;;;17.48;46.12;101852.97;5033764;28;20400;-84
2022/05/12 09:24:17;;;;;;;8.77;2.90;;;;;;;17.61;44.29;101840.00;5033449;28;20055;-86
2022/05/12 09:27:13;;;;;;;9.88;2.67;;;;;;;17.91;45.28;101846.09;5033548;28;20035;-84
2022/05/12 09:29:48;;;;;;;9.98;2.72;;;;;;;17.91;44.39;101846.09;5021075;28;20083;-83
2022/05/12 09:32:23;;;;;;;8.43;2.53;;;;;;;18.00;43.96;101845.78;5033232;28;20041;-84
2022/05/12 09:35:23;;;;;;;4.43;2.25;;;;;;;18.17;45.43;101842.44;5051185;28;20473;-84
2022/05/12 09:37:50;;;;;;;7.20;2.60;;;;;;;18.38;42.16;101845.25;5041171;28;20035;-84
2022/05/12 09:40:16;;;;;;;10.15;2.72;;;;;;;18.56;42.33;101835.59;5037191;28;20121;-84
2022/05/12 09:42:45;;;;;;;5.55;2.45;;;;;;;18.73;41.45;101833.13;5071342;28;20178;-83
2022/05/12 09:45:30;;;;;;;6.88;2.65;;;;;;;18.77;40.96;101837.47;5053216;28;20033;-83
2022/05/12 09:48:19;;;;;;;7.28;2.17;;;;;;;18.90;41.19;101836.03;5043497;28;20049;-84
2022/05/12 09:50:47;;;;;;;8.40;2.50;;;;;;;18.90;39.89;101829.78;5049749;28;20040;-83
2022/05/12 09:53:22;;;;;;;6.07;2.10;;;;;;;19.09;40.00;101836.16;5051213;28;20044;-83
2022/05/12 09:56:05;;;;;;;11.98;2.42;;;;;;;19.30;39.82;101833.50;5033359;28;20424;-83
2022/05/12 09:58:50;;;;;;;10.70;2.80;;;;;;;19.46;39.80;101829.22;5049541;28;20045;-84
2022/05/12 10:01:21;;;;;;;6.82;2.15;;;;;;;19.42;38.34;101824.03;5031925;28;20378;-82
2022/05/12 10:09:32;;;;;;;4.93;1.73;;;;;;;19.34;39.78;101829.75;5049517;28;20106;-83
2022/05/12 10:12:17;;;;;;;6.38;2.47;;;;;;;18.90;39.04;101827.97;5031958;28;20098;-84
2022/05/12 10:14:48;;;;;;;6.72;1.98;;;;;;;18.89;40.20;101820.88;5008982;28;20489;-83
2022/05/12 10:17:33;;;;;;;4.95;1.70;;;;;;;19.09;39.13;101824.53;5030009;28;20113;-83
2022/05/12 10:20:10;;;;;;;9.18;2.20;;;;;;;19.49;39.26;101822.84;5015712;28;20374;-84
2022/05/12 10:22:43;;;;;;;5.60;2.10;;;;;;;19.64;37.46;101822.16;5017195;28;20192;-83
2022/05/12 10:25:24;;;;;;;10.90;2.30;;;;;;;19.32;37.36;101831.63;5035030;28;20501;-83
2022/05/12 10:28:02;;;;;;;8.18;2.20;;;;;;;18.89;38.49;101828.94;5033934;28;20371;-83
2022/05/12 10:31:22;;;;;;;7.45;2.03;;;;;;;19.25;38.55;101841.75;5001743;28;20473;-83
2022/05/12 10:33:59;;;;;;;5.43;2.10;;;;;;;19.43;38.46;101831.16;4974053;28;20426;-84
2022/05/12 10:37:01;;;;;;;6.78;2.17;;;;;;;19.50;38.77;101824.56;5053703;28;20040;-83
2022/05/12 10:39:52;;;;;;;8.07;2.25;;;;;;;19.16;38.46;101828.69;5039025;28;20048;-83
2022/05/12 10:42:32;;;;;;;7.88;1.90;;;;;;;18.86;39.33;101830.84;5034901;28;20115;-83
2022/05/12 10:45:13;;;;;;;7.90;1.77;;;;;;;18.77;38.70;101841.94;5034418;28;20052;-82
2022/05/12 10:47:53;;;;;;;5.30;1.80;;;;;;;18.63;38.53;101835.28;5040296;28;20151;-83
2022/05/12 10:50:29;;;;;;;4.32;1.77;;;;;;;18.53;38.72;101833.03;5036718;28;20377;-82
2022/05/12 10:53:16;;;;;;;7.57;2.08;;;;;;;18.51;39.27;101833.09;5052610;28;20041;-82
2022/05/12 10:55:55;;;;;;;5.35;1.95;;;;;;;18.75;38.49;101820.53;5036304;28;20044;-82
2022/05/12 10:58:34;;;;;;;7.93;2.00;;;;;;;19.06;36.87;101819.28;5054438;28;20057;-83
2022/05/12 11:01:16;;;;;;;3.88;1.48;;;;;;;19.07;37.09;101819.22;5035729;28;20036;-82
2022/05/12 11:03:41;;;;;;;11.10;2.05;;;;;;;18.95;35.41;101829.59;5052780;28;20033;-82
2022/05/12 11:06:13;;;;;;;8.07;1.77;;;;;;;18.88;36.32;101824.47;5036269;28;20129;-82
2022/05/12 11:08:44;;;;;;;6.28;1.65;;;;;;;18.70;35.59;101827.88;5048945;28;20029;-82
2022/05/12 11:11:15;;;;;;;9.80;2.08;;;;;;;18.65;36.49;101821.84;5036383;28;20101;-82
2022/05/12 11:13:48;;;;;;;6.70;2.20;;;;;;;18.77;37.21;101821.38;5036330;28;20522;-82
2022/05/12 11:16:18;;;;;;;6.10;2.22;;;;;;;18.85;37.37;101815.69;5054087;28;20197;-82
2022/05/12 11:19:10;;;;;;;5.35;1.80;;;;;;;18.83;37.27;101813.06;5053983;28;20041;-82
2022/05/12 11:21:47;;;;;;;8.15;2.42;;;;;;;18.99;37.60;101804.38;5036184;28;20045;-83
2022/05/12 11:24:22;;;;;;;5.47;2.08;;;;;;;19.33;37.39;101803.81;5053934;28;20032;-83
2022/05/12 11:27:12;;;;;;;6.28;2.00;;;;;;;19.49;35.94;101802.22;5054120;28;20083;-83
2022/05/12 11:29:56;;;;;;;7.63;2.03;;;;;;;19.70;34.38;101810.28;5035904;28;20036;-83
2022/05/12 11:32:32;;;;;;;7.82;2.00;;;;;;;19.83;34.54;101798.06;5034809;28;20386;-82
2022/05/12 11:35:12;;;;;;;4.97;2.20;;;;;;;19.51;34.87;101803.03;5035947;28;20037;-84
2022/05/12 11:37:38;;;;;;;5.97;1.80;;;;;;;19.42;35.24;101806.09;5036238;28;20037;-83
2022/05/12 11:40:32;;;;;;;5.57;1.70;;;;;;;19.41;35.99;101798.09;5060955;28;20381;-83
2022/05/12 11:45:50;;;;;;;9.65;2.17;;;;;;;19.07;35.83;101813.84;5035853;28;20045;-83
2022/05/12 11:48:18;;;;;;;5.97;2.08;;;;;;;19.52;35.87;101795.81;5041559;28;20532;-83
2022/05/12 11:50:59;;;;;;;7.50;1.80;;;;;;;19.94;35.93;101789.50;5039856;28;20149;-83
2022/05/12 11:53:27;;;;;;;8.10;1.98;;;;;;;19.85;33.76;101803.34;5038267;28;20041;-83
2022/05/12 11:56:11;;;;;;;4.72;1.48;;;;;;;20.07;33.10;101797.88;5032564;28;20474;-83